Time;durP1;ratioP1;P1;durP2;ratioP2;P2;SDS_P1;SDS_P2;PMS_P1;PMS_P2;Temp;Humidity;BMP_temperature;BMP_pressure;BME280_temperature;BME280_humidity;BME280_pressure;Samples;Min_cycle;Max_cycle;Signal;HPM_P1;HPM_P2
2023/04/15 00:02:49;;;;;;;14.23;6.00;;;20.00;64.40;;;;;;10506608;28;20060;-29
2023/04/15 00:07:52;;;;;;;10.50;5.38;;;20.00;64.40;;;;;;10517977;28;20089;-27
2023/04/15 00:12:54;;;;;;;11.13;5.75;;;19.90;64.30;;;;;;10522709;28;20058;-29
2023/04/15 00:17:57;;;;;;;11.00;5.97;;;19.90;64.40;;;;;;10519498;28;20048;-28
2023/04/15 00:22:59;;;;;;;7.93;4.57;;;19.90;64.50;;;;;;10521911;28;20135;-29
2023/04/15 00:28:01;;;;;;;12.30;6.30;;;19.90;64.50;;;;;;10519575;28;20451;-31
2023/04/15 00:33:06;;;;;;;11.70;5.93;;;19.90;64.40;;;;;;10532877;28;20389;-28
2023/04/15 00:38:09;;;;;;;10.07;6.03;;;19.80;64.50;;;;;;10519938;28;20044;-31
2023/04/15 00:43:11;;;;;;;11.35;5.13;;;19.80;64.50;;;;;;10524585;28;20147;-30
2023/04/15 00:48:15;;;;;;;9.32;4.82;;;19.80;64.40;;;;;;10513677;28;20052;-28
2023/04/15 00:53:17;;;;;;;8.68;5.32;;;19.80;64.70;;;;;;10532401;28;20055;-29
2023/04/15 00:58:19;;;;;;;12.73;6.43;;;19.80;64.60;;;;;;10534908;28;20408;-35
2023/04/15 01:03:22;;;;;;;;;;;19.80;64.60;;;;;;10528192;28;20044;-26
2023/04/15 01:08:27;;;;;;;10.10;5.72;;;19.70;64.60;;;;;;10531944;28;20409;-29
2023/04/15 01:13:29;;;;;;;10.98;6.30;;;19.70;64.60;;;;;;10519832;28;20751;-30
2023/04/15 01:18:32;;;;;;;10.60;5.53;;;19.70;64.70;;;;;;10536737;28;20093;-29
2023/04/15 01:23:37;;;;;;;9.75;5.13;;;19.70;64.80;;;;;;10529237;28;20052;-32
2023/04/15 01:28:40;;;;;;;13.90;6.13;;;19.70;64.80;;;;;;10531326;28;20113;-34
2023/04/15 01:33:43;;;;;;;8.98;5.30;;;19.70;64.90;;;;;;10532425;28;20048;-34
2023/04/15 01:38:45;;;;;;;13.15;5.65;;;19.60;64.70;;;;;;10526644;28;20048;-34
2023/04/15 01:43:48;;;;;;;8.23;4.47;;;19.60;64.80;;;;;;10518888;28;20403;-30
2023/04/15 01:48:50;;;;;;;10.90;5.28;;;19.60;64.90;;;;;;10534401;28;20105;-30
2023/04/15 01:53:52;;;;;;;11.40;6.50;;;19.60;64.80;;;;;;10534084;28;20044;-30
2023/04/15 01:58:55;;;;;;;10.73;5.22;;;19.60;64.90;;;;;;10534293;28;20105;-34
2023/04/15 02:03:58;;;;;;;10.93;6.68;;;19.60;65.10;;;;;;10523519;28;20040;-37
2023/04/15 02:08:59;;;;;;;10.80;5.53;;;19.60;65.00;;;;;;10531341;28;20044;-31
2023/04/15 02:14:04;;;;;;;12.15;6.32;;;19.60;65.00;;;;;;10525684;28;20088;-33
2023/04/15 02:19:06;;;;;;;9.50;5.65;;;19.60;65.10;;;;;;10533796;28;20052;-36
2023/04/15 02:24:08;;;;;;;9.43;5.43;;;19.50;65.10;;;;;;10528909;28;20076;-31
2023/04/15 02:29:12;;;;;;;13.50;6.15;;;19.50;65.10;;;;;;10525715;28;20127;-30
2023/04/15 02:34:14;;;;;;;7.72;4.50;;;19.50;65.10;;;;;;10521063;28;20767;-30
2023/04/15 02:39:17;;;;;;;10.90;5.38;;;19.50;65.10;;;;;;10531584;28;20048;-28
2023/04/15 02:44:22;;;;;;;8.15;4.45;;;19.40;65.10;;;;;;10519471;28;21667;-28
2023/04/15 02:49:24;;;;;;;9.65;5.65;;;19.50;65.10;;;;;;10516566;28;20393;-29
2023/04/15 02:54:27;;;;;;;8.27;4.35;;;19.40;65.10;;;;;;10533021;28;20052;-31
2023/04/15 02:59:30;;;;;;;12.52;4.25;;;19.40;65.20;;;;;;10527796;28;20080;-29
2023/04/15 03:04:32;;;;;;;6.40;3.17;;;19.30;65.10;;;;;;10521504;28;20078;-28
2023/04/15 03:09:35;;;;;;;10.43;5.10;;;19.30;65.20;;;;;;10527683;28;20060;-28
2023/04/15 03:14:38;;;;;;;9.43;4.75;;;19.30;65.30;;;;;;10528826;28;20056;-30
2023/04/15 03:19:40;;;;;;;5.05;3.20;;;19.30;65.20;;;;;;10525552;28;20670;-32
2023/04/15 03:24:42;;;;;;;7.72;4.05;;;19.30;65.20;;;;;;10529535;28;20500;-31
2023/04/15 03:29:45;;;;;;;5.65;2.90;;;19.30;65.20;;;;;;10520434;28;20066;-30
2023/04/15 03:34:47;;;;;;;5.45;3.22;;;19.30;65.80;;;;;;10520586;28;20051;-29
2023/04/15 03:39:49;;;;;;;5.65;3.35;;;19.30;65.30;;;;;;10530683;28;20067;-29
2023/04/15 03:44:52;;;;;;;6.50;3.60;;;19.30;65.30;;;;;;10526016;28;20044;-34
2023/04/15 03:49:54;;;;;;;7.45;3.95;;;19.30;65.40;;;;;;10528394;28;20134;-29
2023/04/15 03:54:56;;;;;;;6.82;3.83;;;19.30;65.40;;;;;;10529550;28;20044;-29
2023/04/15 04:00:00;;;;;;;4.32;2.83;;;19.20;65.40;;;;;;10532283;28;20048;-32
2023/04/15 04:05:01;;;;;;;5.75;3.72;;;19.20;65.50;;;;;;10528247;28;20055;-29
2023/04/15 04:10:04;;;;;;;7.50;3.78;;;19.20;65.40;;;;;;10518917;28;20051;-29
2023/04/15 04:15:08;;;;;;;5.63;3.35;;;19.20;65.50;;;;;;10520966;28;20048;-28
2023/04/15 04:20:11;;;;;;;6.07;3.55;;;19.20;65.50;;;;;;10526833;28;20470;-34
2023/04/15 04:25:13;;;;;;;5.13;3.50;;;19.20;65.40;;;;;;10528005;28;20476;-29
2023/04/15 04:30:16;;;;;;;5.07;2.60;;;19.20;65.50;;;;;;10530804;28;20064;-31
2023/04/15 04:35:19;;;;;;;7.90;3.13;;;19.10;65.50;;;;;;10522886;28;20424;-28
2023/04/15 04:40:21;;;;;;;4.00;2.75;;;19.10;65.50;;;;;;10527765;28;20135;-29
2023/04/15 04:45:24;;;;;;;5.32;3.38;;;19.10;65.50;;;;;;10525607;28;20080;-28
2023/04/15 04:50:26;;;;;;;4.18;2.45;;;19.10;65.60;;;;;;10516645;28;20093;-29
2023/04/15 04:55:28;;;;;;;7.72;3.70;;;19.00;65.40;;;;;;10519058;28;20152;-33
2023/04/15 05:00:32;;;;;;;3.50;2.45;;;19.10;65.60;;;;;;10512787;28;20052;-31
2023/04/15 05:05:35;;;;;;;6.43;3.10;;;19.00;65.60;;;;;;10525292;28;20115;-28
2023/04/15 05:10:37;;;;;;;4.78;3.00;;;19.00;65.60;;;;;;10521207;28;20135;-30
2023/04/15 05:15:42;;;;;;;4.30;2.45;;;19.00;65.90;;;;;;10524815;28;20048;-35
2023/04/15 05:20:43;;;;;;;5.93;3.35;;;19.00;65.90;;;;;;10537210;28;20589;-35
2023/04/15 05:25:45;;;;;;;5.07;2.90;;;19.00;66.00;;;;;;10520426;28;20076;-29
2023/04/15 05:30:49;;;;;;;6.43;3.10;;;19.00;66.10;;;;;;10517054;28;20516;-27
2023/04/15 05:35:50;;;;;;;4.15;2.60;;;19.00;66.20;;;;;;10529058;28;20076;-33
2023/04/15 05:40:52;;;;;;;8.05;3.15;;;19.00;66.40;;;;;;10533591;28;20048;-35
2023/04/15 05:45:55;;;;;;;3.35;2.50;;;19.00;66.40;;;;;;10521607;28;20056;-31
2023/04/15 05:50:58;;;;;;;3.83;2.10;;;19.00;66.50;;;;;;10524855;28;20564;-30
2023/04/15 05:56:00;;;;;;;;;;;19.00;66.30;;;;;;10533250;28;20052;-29
2023/04/15 06:01:04;;;;;;;5.00;2.90;;;19.10;66.30;;;;;;10533367;28;20295;-30
2023/04/15 06:06:06;;;;;;;5.70;2.40;;;19.00;66.30;;;;;;10534747;28;20465;-31
2023/04/15 06:11:08;;;;;;;4.82;2.30;;;19.10;66.20;;;;;;10522438;28;20043;-31
2023/04/15 06:16:12;;;;;;;5.30;2.78;;;19.10;66.40;;;;;;10531182;28;20084;-30
2023/04/15 06:21:14;;;;;;;7.75;2.28;;;19.10;66.20;;;;;;10532038;28;20055;-29
2023/04/15 06:26:16;;;;;;;7.88;2.38;;;19.10;66.30;;;;;;10530592;28;20060;-28
2023/04/15 06:31:19;;;;;;;8.30;1.50;;;19.20;66.10;;;;;;10526386;28;20113;-31
2023/04/15 06:36:21;;;;;;;5.90;1.95;;;19.20;65.80;;;;;;10535316;28;20072;-28
2023/04/15 06:41:23;;;;;;;11.20;2.72;;;19.30;65.50;;;;;;10532067;28;20082;-29
2023/04/15 06:46:26;;;;;;;7.40;1.98;;;19.20;66.00;;;;;;10508054;28;20086;-29
2023/04/15 06:51:28;;;;;;;3.08;1.33;;;19.10;66.10;;;;;;10528017;28;20097;-29
2023/04/15 06:56:31;;;;;;;2.42;1.00;;;19.10;65.90;;;;;;10522335;28;20489;-29
2023/04/15 07:01:34;;;;;;;3.25;1.50;;;19.10;66.10;;;;;;10521786;28;20562;-35
2023/04/15 07:06:35;;;;;;;2.55;1.70;;;19.20;66.00;;;;;;10520398;28;20044;-32
2023/04/15 07:11:38;;;;;;;9.15;2.08;;;19.20;66.00;;;;;;10527953;28;20086;-33
2023/04/15 07:16:41;;;;;;;7.75;1.67;;;19.10;66.40;;;;;;10525216;28;20113;-29
2023/04/15 07:21:43;;;;;;;10.20;1.75;;;19.00;66.80;;;;;;10520555;28;20089;-30
2023/04/15 07:26:46;;;;;;;5.10;1.70;;;19.20;66.60;;;;;;10517959;28;20056;-30
2023/04/15 07:31:49;;;;;;;3.28;1.30;;;19.30;66.40;;;;;;10509722;28;20056;-29
2023/04/15 07:36:51;;;;;;;10.13;1.27;;;19.40;66.50;;;;;;10524344;28;20066;-29
2023/04/15 07:41:53;;;;;;;6.55;1.20;;;19.40;66.60;;;;;;10520458;28;20562;-29
2023/04/15 07:46:56;;;;;;;6.78;1.00;;;19.50;66.70;;;;;;10524597;28;20044;-31
2023/04/15 07:51:58;;;;;;;6.28;1.10;;;19.60;66.80;;;;;;10512824;28;20039;-29
2023/04/15 07:57:01;;;;;;;9.25;1.20;;;19.60;66.60;;;;;;10527060;28;20062;-28
2023/04/15 08:02:05;;;;;;;6.72;2.15;;;19.60;66.70;;;;;;10518537;28;20128;-28
2023/04/15 08:07:07;;;;;;;5.93;1.63;;;19.60;66.60;;;;;;10518414;28;20048;-29
2023/04/15 08:12:12;;;;;;;6.60;1.60;;;19.60;66.40;;;;;;10519981;28;20618;-27
2023/04/15 08:17:15;;;;;;;4.45;2.17;;;19.70;66.30;;;;;;10516870;28;20409;-31
2023/04/15 08:22:19;;;;;;;10.13;3.75;;;19.70;66.10;;;;;;10518179;28;20056;-33
2023/04/15 08:27:21;;;;;;;7.25;3.45;;;19.70;67.20;;;;;;10517241;28;20396;-35
2023/04/15 08:32:25;;;;;;;8.40;3.47;;;19.90;67.80;;;;;;10519890;28;20094;-31
2023/04/15 08:37:27;;;;;;;4.22;1.85;;;20.10;65.80;;;;;;10520636;28;20052;-32
2023/04/15 08:42:32;;;;;;;5.47;1.60;;;20.10;65.20;;;;;;10513879;28;20080;-33
2023/04/15 08:47:38;;;;;;;5.50;1.10;;;20.20;64.40;;;;;;10517426;28;20785;-31
2023/04/15 08:52:41;;;;;;;3.17;1.27;;;20.30;64.50;;;;;;10533815;28;20046;-31
2023/04/15 08:57:43;;;;;;;4.07;1.52;;;20.40;64.10;;;;;;10533358;28;20084;-32
2023/04/15 09:02:47;;;;;;;6.18;1.50;;;20.30;64.70;;;;;;10531625;28;20575;-30
2023/04/15 09:07:50;;;;;;;9.02;3.50;;;20.50;64.30;;;;;;10530707;28;20411;-34
2023/04/15 09:12:52;;;;;;;5.10;3.08;;;20.40;65.30;;;;;;10528970;28;20048;-30
2023/04/15 09:17:57;;;;;;;7.97;3.58;;;20.40;64.70;;;;;;10537510;28;20143;-30
2023/04/15 09:22:58;;;;;;;7.43;3.85;;;20.70;63.60;;;;;;10524177;28;20515;-31
2023/04/15 09:28:01;;;;;;;5.13;2.38;;;20.90;60.30;;;;;;10526402;28;20435;-31
2023/04/15 09:33:07;;;;;;;8.73;4.30;;;21.00;61.40;;;;;;10519311;28;20044;-37
2023/04/15 09:38:10;;;;;;;7.32;3.10;;;20.60;63.70;;;;;;10516615;28;20503;-33
2023/04/15 09:43:13;;;;;;;6.45;3.22;;;20.70;63.40;;;;;;10520602;28;20090;-32
2023/04/15 09:48:19;;;;;;;7.47;3.13;;;20.70;63.40;;;;;;10527558;28;20093;-32
2023/04/15 09:53:23;;;;;;;3.97;2.00;;;21.00;61.10;;;;;;10515103;28;20040;-31
2023/04/15 09:58:27;;;;;;;2.47;1.40;;;21.20;61.30;;;;;;10520250;28;20056;-34
2023/04/15 10:03:32;;;;;;;2.60;1.15;;;21.00;62.10;;;;;;10529793;28;20533;-31
2023/04/15 10:08:35;;;;;;;2.95;1.52;;;20.90;62.50;;;;;;10511434;28;20132;-31
2023/04/15 10:13:37;;;;;;;5.00;1.80;;;21.00;62.50;;;;;;10516874;28;20049;-32
2023/04/15 10:18:43;;;;;;;4.80;1.95;;;21.40;58.90;;;;;;10519456;28;20492;-33
2023/04/15 10:23:46;;;;;;;4.35;1.95;;;20.80;62.70;;;;;;10518822;28;20052;-35
2023/04/15 10:28:48;;;;;;;3.95;1.67;;;20.90;63.30;;;;;;10519140;28;20500;-32
2023/04/15 10:33:52;;;;;;;2.95;1.55;;;21.10;62.30;;;;;;10524677;28;20082;-32
2023/04/15 10:38:54;;;;;;;2.88;1.30;;;21.10;62.40;;;;;;10524651;28;20116;-36
2023/04/15 10:43:59;;;;;;;5.82;2.33;;;21.20;61.40;;;;;;10511101;28;20080;-31
2023/04/15 10:49:09;;;;;;;4.82;1.65;;;20.40;63.30;;;;;;10517149;28;20048;-37
2023/04/15 10:54:14;;;;;;;4.63;2.00;;;20.50;62.70;;;;;;10513828;28;20040;-33
2023/04/15 10:59:16;;;;;;;3.03;2.08;;;20.10;64.40;;;;;;10522055;28;20139;-33
2023/04/15 11:04:54;;;;;;;7.47;2.63;;;20.60;63.20;;;;;;10517006;28;20113;-31
2023/04/15 11:09:56;;;;;;;5.20;2.22;;;20.80;62.70;;;;;;10516293;28;20066;-32
2023/04/15 11:14:58;;;;;;;3.83;2.63;;;20.80;61.00;;;;;;10512799;28;20045;-34
2023/04/15 11:20:03;;;;;;;4.85;1.83;;;20.40;59.10;;;;;;10513388;28;20449;-30
2023/04/15 11:25:06;;;;;;;3.25;1.67;;;20.30;63.50;;;;;;10518017;28;20059;-37
2023/04/15 11:30:19;;;;;;;4.90;1.85;;;20.70;60.20;;;;;;10513078;28;20127;-33
2023/04/15 11:35:23;;;;;;;2.80;1.92;;;20.40;62.40;;;;;;10530121;28;20480;-29
2023/04/15 11:40:26;;;;;;;7.03;2.70;;;20.30;63.30;;;;;;10516990;28;20110;-31
2023/04/15 11:45:28;;;;;;;6.18;2.10;;;20.30;63.70;;;;;;10527997;28;20079;-32
2023/04/15 11:50:31;;;;;;;7.93;2.15;;;20.80;61.80;;;;;;10519600;28;20060;-31
2023/04/15 11:55:42;;;;;;;5.93;2.15;;;20.60;62.80;;;;;;10526746;28;20058;-31
2023/04/15 12:00:51;;;;;;;6.82;2.30;;;19.60;65.00;;;;;;10515801;28;20052;-37
2023/04/15 12:06:22;;;;;;;8.35;3.10;;;20.10;65.70;;;;;;10519094;28;20155;-32
2023/04/15 12:11:30;;;;;;;14.27;3.20;;;20.10;62.50;;;;;;10521090;28;20052;-31
2023/04/15 12:16:33;;;;;;;6.38;2.45;;;19.80;65.20;;;;;;10518871;28;20063;-33
2023/04/15 12:21:38;;;;;;;4.32;2.08;;;20.10;62.10;;;;;;10509063;28;20075;-31
2023/04/15 12:26:45;;;;;;;5.63;1.83;;;20.30;63.40;;;;;;10528693;28;20040;-37
2023/04/15 12:31:49;;;;;;;3.92;1.67;;;20.50;63.90;;;;;;10523241;28;20400;-33
2023/04/15 12:36:52;;;;;;;12.95;2.80;;;20.40;63.20;;;;;;10514694;28;20400;-32
2023/04/15 12:41:55;;;;;;;8.38;1.85;;;20.30;64.30;;;;;;10514373;28;20044;-31
2023/04/15 12:46:57;;;;;;;3.45;1.13;;;20.30;65.40;;;;;;10516073;28;20048;-31
2023/04/15 12:52:01;;;;;;;11.20;2.38;;;21.30;62.10;;;;;;10506553;28;20448;-32
2023/04/15 12:57:04;;;;;;;8.77;3.35;;;20.90;60.30;;;;;;10517957;28;20051;-35
2023/04/15 13:02:06;;;;;;;5.95;2.08;;;20.10;65.40;;;;;;10516565;28;20078;-31
2023/04/15 13:07:12;;;;;;;6.28;2.30;;;20.70;65.10;;;;;;10515194;28;20411;-32
2023/04/15 13:12:15;;;;;;;7.85;2.13;;;20.90;63.30;;;;;;10517271;28;20041;-30
2023/04/15 13:17:19;;;;;;;4.78;1.67;;;20.80;63.50;;;;;;10521228;28;20048;-31
2023/04/15 13:22:22;;;;;;;4.57;1.98;;;20.50;63.80;;;;;;10506384;28;20519;-32
2023/04/15 13:27:24;;;;;;;2.80;1.73;;;21.20;62.80;;;;;;10526403;28;20076;-37
2023/04/15 13:32:26;;;;;;;4.10;1.27;;;21.60;61.90;;;;;;10517375;28;20077;-31
2023/04/15 13:37:30;;;;;;;4.50;1.20;;;21.80;59.80;;;;;;10525147;28;20407;-36
2023/04/15 13:42:33;;;;;;;3.58;1.33;;;21.40;58.30;;;;;;10510305;28;20135;-33
2023/04/15 13:47:34;;;;;;;5.80;1.17;;;21.60;60.20;;;;;;10521722;28;20152;-36
2023/04/15 13:52:38;;;;;;;5.63;1.00;;;21.90;59.40;;;;;;10514394;28;20127;-29
2023/04/15 13:57:40;;;;;;;1.42;0.80;;;21.90;56.70;;;;;;10524777;28;20047;-35
2023/04/15 14:02:42;;;;;;;1.77;0.70;;;22.10;58.80;;;;;;10520646;28;20040;-33
2023/04/15 14:07:45;;;;;;;;;;;22.20;57.00;;;;;;10521561;28;20569;-35
2023/04/15 14:12:46;;;;;;;4.80;1.10;;;22.20;59.90;;;;;;10515557;28;20046;-34
2023/04/15 14:17:49;;;;;;;8.35;2.10;;;22.40;59.30;;;;;;10514682;28;20067;-34
2023/04/15 14:22:52;;;;;;;;;;;22.30;57.60;;;;;;10519902;28;20181;-32
2023/04/15 14:27:54;;;;;;;3.38;0.85;;;22.20;59.00;;;;;;10518679;28;20007;-33
2023/04/15 14:32:55;;;;;;;4.65;0.65;;;22.50;57.20;;;;;;10525472;28;20098;-32
2023/04/15 14:37:59;;;;;;;5.03;1.48;;;22.70;56.20;;;;;;10523570;28;20140;-32
2023/04/15 14:43:00;;;;;;;1.30;0.52;;;22.40;57.30;;;;;;10526898;28;20075;-33
2023/04/15 14:48:02;;;;;;;7.30;0.73;;;22.90;55.40;;;;;;10523344;28;20094;-38
2023/04/15 14:53:06;;;;;;;2.53;0.70;;;22.90;55.80;;;;;;10517500;28;20115;-39
2023/04/15 14:58:08;;;;;;;8.85;2.88;;;23.00;56.00;;;;;;10512298;28;20040;-38
2023/04/15 15:03:12;;;;;;;;;;;22.10;58.30;;;;;;10527222;28;20404;-37
2023/04/15 15:08:15;;;;;;;4.53;1.75;;;22.50;55.80;;;;;;10521021;28;19936;-37
2023/04/15 15:13:18;;;;;;;6.68;1.27;;;22.10;57.00;;;;;;10531088;28;20056;-31
2023/04/15 15:18:20;;;;;;;2.50;1.30;;;22.90;57.70;;;;;;10520486;28;20047;-33
2023/04/15 15:23:26;;;;;;;3.05;1.52;;;22.80;58.60;;;;;;10518626;28;20045;-31
2023/04/15 15:28:28;;;;;;;5.57;1.80;;;22.30;61.80;;;;;;10512639;28;20546;-33
2023/04/15 15:33:30;;;;;;;2.75;1.10;;;22.60;60.50;;;;;;10515862;28;20049;-31
2023/04/15 15:38:33;;;;;;;5.45;1.02;;;23.00;59.10;;;;;;10524458;28;20424;-32
2023/04/15 15:43:35;;;;;;;6.05;0.95;;;23.20;58.80;;;;;;10515687;28;20102;-33
2023/04/15 15:48:37;;;;;;;6.53;1.20;;;22.90;59.70;;;;;;10518099;28;20537;-31
2023/04/15 15:53:41;;;;;;;3.50;1.25;;;23.00;59.50;;;;;;10523274;28;20075;-36
2023/04/15 15:58:43;;;;;;;7.10;1.30;;;22.90;60.10;;;;;;10524305;28;20052;-34
2023/04/15 16:03:45;;;;;;;3.03;1.25;;;22.80;59.60;;;;;;10525948;28;20048;-31
2023/04/15 16:08:49;;;;;;;4.18;1.42;;;23.30;58.90;;;;;;10506800;28;20142;-30
2023/04/15 16:13:51;;;;;;;11.13;2.05;;;23.40;59.10;;;;;;10513815;28;20036;-30
2023/04/15 16:18:53;;;;;;;5.07;1.75;;;22.90;61.70;;;;;;10525044;28;20044;-38
2023/04/15 16:23:56;;;;;;;5.88;1.65;;;23.40;63.30;;;;;;10523621;28;20149;-32
2023/04/15 16:28:59;;;;;;;7.55;1.83;;;23.30;61.00;;;;;;10518316;28;20075;-33
2023/04/15 16:34:01;;;;;;;9.35;1.50;;;23.20;58.10;;;;;;10519937;28;20091;-35
2023/04/15 16:39:04;;;;;;;4.93;1.65;;;21.90;59.30;;;;;;10525545;28;20856;-31
2023/04/15 16:44:07;;;;;;;3.33;1.33;;;22.50;54.70;;;;;;10521766;28;20048;-32
2023/04/15 16:49:10;;;;;;;4.70;1.10;;;22.40;59.20;;;;;;10519816;28;20074;-32
2023/04/15 16:54:13;;;;;;;3.95;0.77;;;22.60;53.50;;;;;;10523426;28;20047;-31
2023/04/15 16:59:15;;;;;;;5.13;1.00;;;22.70;58.40;;;;;;10515996;28;20083;-32
2023/04/15 17:04:17;;;;;;;3.90;0.90;;;23.00;58.80;;;;;;10520112;28;20045;-31
2023/04/15 17:09:20;;;;;;;1.55;1.00;;;22.00;61.30;;;;;;10520860;28;20087;-32
2023/04/15 17:14:22;;;;;;;4.88;1.67;;;22.10;58.50;;;;;;10524421;28;20113;-35
2023/04/15 17:19:25;;;;;;;3.33;1.70;;;22.20;63.90;;;;;;10521888;28;20492;-33
2023/04/15 17:24:28;;;;;;;4.75;1.27;;;22.00;67.50;;;;;;10520813;28;20052;-33
2023/04/15 17:29:30;;;;;;;3.67;1.55;;;21.80;56.90;;;;;;10518326;28;20052;-35
2023/04/15 17:34:32;;;;;;;5.35;1.92;;;21.70;64.70;;;;;;10518777;28;20135;-33
2023/04/15 17:39:35;;;;;;;15.32;3.03;;;20.60;64.90;;;;;;10521185;28;20071;-39
2023/04/15 17:44:37;;;;;;;10.73;1.80;;;20.80;69.20;;;;;;10527408;28;20156;-32
2023/04/15 17:49:39;;;;;;;7.30;1.73;;;20.30;56.40;;;;;;10506263;28;20055;-31
2023/04/15 17:54:43;;;;;;;7.75;2.25;;;20.00;72.20;;;;;;10521872;28;20412;-33
2023/04/15 17:59:46;;;;;;;12.35;3.88;;;20.50;73.10;;;;;;10516277;28;20059;-36
2023/04/15 18:04:48;;;;;;;6.47;2.30;;;21.40;71.40;;;;;;10520711;28;20086;-35
2023/04/15 18:09:54;;;;;;;7.00;2.70;;;19.30;74.90;;;;;;10513222;28;20523;-38
2023/04/15 18:14:57;;;;;;;12.35;2.97;;;19.90;59.80;;;;;;10518111;28;20048;-38
2023/04/15 18:19:59;;;;;;;8.52;2.92;;;20.30;76.30;;;;;;10523951;28;20040;-33
2023/04/15 18:25:03;;;;;;;9.20;3.72;;;19.80;66.20;;;;;;10510588;28;20181;-32
2023/04/15 18:30:06;;;;;;;8.55;3.60;;;20.30;65.20;;;;;;10511184;28;20040;-32
2023/04/15 18:35:08;;;;;;;18.50;5.53;;;21.20;77.70;;;;;;10517477;28;20048;-31
2023/04/15 18:40:13;;;;;;;13.23;4.78;;;22.10;68.70;;;;;;10515876;28;20081;-31
2023/04/15 18:45:15;;;;;;;14.32;7.03;;;21.70;72.00;;;;;;10524817;28;20127;-30
2023/04/15 18:50:17;;;;;;;13.15;4.20;;;22.10;67.20;;;;;;10522222;28;20186;-31
2023/04/15 18:55:21;;;;;;;;;;;22.60;64.00;;;;;;10525385;28;20055;-30
2023/04/15 19:00:23;;;;;;;10.15;3.70;;;22.20;63.60;;;;;;10520655;28;20518;-32
2023/04/15 19:05:25;;;;;;;15.00;3.47;;;22.20;62.10;;;;;;10511437;28;20052;-29
2023/04/15 19:10:29;;;;;;;10.38;2.70;;;22.80;59.30;;;;;;10517664;28;20477;-32
2023/04/15 19:15:31;;;;;;;7.63;2.67;;;21.70;60.00;;;;;;10518500;28;20127;-30
2023/04/15 19:20:33;;;;;;;8.10;2.97;;;21.40;60.50;;;;;;10525892;28;20150;-35
2023/04/15 19:25:36;;;;;;;;;;;21.30;66.60;;;;;;10499767;28;20040;-32
2023/04/15 19:30:38;;;;;;;4.55;2.28;;;22.20;62.60;;;;;;10525185;28;19924;-32
2023/04/15 19:35:40;;;;;;;5.93;2.13;;;21.10;65.70;;;;;;10524532;28;20109;-33
2023/04/15 19:40:43;;;;;;;;;;;21.60;65.40;;;;;;10525560;28;20047;-30
2023/04/15 19:45:48;;;;;;;5.35;2.00;;;21.70;65.10;;;;;;10510952;28;19925;-35
2023/04/15 19:50:49;;;;;;;6.18;1.70;;;22.10;61.70;;;;;;10504735;28;20053;-29
2023/04/15 19:55:53;;;;;;;8.90;1.95;;;21.30;65.10;;;;;;10510403;28;20040;-29
2023/04/15 20:00:55;;;;;;;5.10;2.08;;;21.30;65.70;;;;;;10512838;28;20818;-30
2023/04/15 20:05:57;;;;;;;7.55;1.35;;;20.60;67.80;;;;;;10521857;28;20072;-29
2023/04/15 20:11:00;;;;;;;5.38;2.28;;;19.40;65.10;;;;;;10514465;28;20051;-31
2023/04/15 20:16:02;;;;;;;7.65;2.03;;;21.50;64.80;;;;;;10518467;28;20101;-31
2023/04/15 20:21:04;;;;;;;10.18;3.13;;;21.00;62.90;;;;;;10511874;28;20056;-31
2023/04/15 20:26:08;;;;;;;7.70;1.83;;;21.00;64.10;;;;;;10515912;28;20544;-26
2023/04/15 20:31:10;;;;;;;8.27;2.40;;;20.60;67.50;;;;;;10518688;28;20068;-29
2023/04/15 20:36:12;;;;;;;8.30;2.30;;;20.60;64.70;;;;;;10504972;28;20044;-30
2023/04/15 20:41:15;;;;;;;10.00;3.05;;;19.60;70.40;;;;;;10510728;28;20500;-35
2023/04/15 20:46:17;;;;;;;9.30;3.25;;;20.40;69.10;;;;;;10533322;28;20135;-29
2023/04/15 20:51:19;;;;;;;12.07;2.60;;;20.60;68.70;;;;;;10536561;28;20139;-32
2023/04/15 20:56:22;;;;;;;9.07;1.70;;;20.90;67.10;;;;;;10522132;28;20639;-28
2023/04/15 21:01:24;;;;;;;5.82;1.65;;;20.40;66.60;;;;;;10533554;28;20503;-29
2023/04/15 21:06:26;;;;;;;9.35;2.00;;;20.10;69.80;;;;;;10524333;28;20048;-34
2023/04/15 21:11:31;;;;;;;6.13;1.70;;;20.60;67.10;;;;;;10517399;28;20093;-31
2023/04/15 21:16:33;;;;;;;9.15;2.15;;;19.80;70.10;;;;;;10532629;28;20075;-30
2023/04/15 21:21:34;;;;;;;7.85;2.05;;;19.80;70.60;;;;;;10530099;28;20157;-31
2023/04/15 21:26:38;;;;;;;9.20;2.97;;;19.50;72.50;;;;;;10521627;28;20569;-32
2023/04/15 21:31:40;;;;;;;6.20;1.60;;;19.60;71.50;;;;;;10530104;28;20048;-30
2023/04/15 21:36:41;;;;;;;;;;;20.30;63.70;;;;;;10534173;28;20047;-30
2023/04/15 21:41:45;;;;;;;7.85;2.63;;;18.40;74.20;;;;;;10518031;28;19920;-33
2023/04/15 21:46:47;;;;;;;6.10;1.95;;;19.30;70.50;;;;;;10507859;28;20079;-32
2023/04/15 21:51:48;;;;;;;11.65;1.80;;;19.20;69.60;;;;;;10528853;28;20697;-31
2023/04/15 21:56:52;;;;;;;4.70;1.58;;;19.60;71.80;;;;;;10532213;28;20071;-29
2023/04/15 22:01:54;;;;;;;7.32;1.48;;;20.00;64.60;;;;;;10523497;28;20054;-30
2023/04/15 22:07:00;;;;;;;5.85;1.77;;;19.50;72.90;;;;;;10531489;28;20060;-29
2023/04/15 22:12:05;;;;;;;4.40;1.38;;;19.10;60.20;;;;;;10515351;28;20412;-28
2023/04/15 22:17:07;;;;;;;4.82;1.45;;;18.40;71.60;;;;;;10524176;28;20137;-29
2023/04/15 22:22:09;;;;;;;4.05;1.67;;;19.40;72.40;;;;;;10533557;28;20074;-31
2023/04/15 22:27:12;;;;;;;11.90;1.15;;;19.20;72.90;;;;;;10527835;28;20079;-31
2023/04/15 22:32:14;;;;;;;4.60;1.23;;;17.80;63.00;;;;;;10521014;28;20048;-32
2023/04/15 22:37:16;;;;;;;5.65;1.58;;;19.30;71.00;;;;;;10521810;28;20040;-30
2023/04/15 22:42:19;;;;;;;3.40;1.70;;;19.30;68.70;;;;;;10525806;28;20065;-33
2023/04/15 22:47:21;;;;;;;6.13;1.63;;;19.50;70.00;;;;;;10525516;28;20075;-30
2023/04/15 22:52:23;;;;;;;4.63;1.75;;;18.30;75.50;;;;;;10529351;28;20093;-33
2023/04/15 22:57:27;;;;;;;8.32;0.90;;;20.00;68.80;;;;;;10511746;28;20040;-29
2023/04/15 23:02:29;;;;;;;3.85;1.27;;;19.40;64.20;;;;;;10530701;28;20141;-32
2023/04/15 23:07:31;;;;;;;3.72;0.70;;;18.50;75.50;;;;;;10527294;28;20059;-30
2023/04/15 23:12:35;;;;;;;6.22;2.58;;;18.80;72.10;;;;;;10506442;28;20056;-29
2023/04/15 23:17:37;;;;;;;2.80;0.98;;;19.60;67.90;;;;;;10532260;28;20044;-29
2023/04/15 23:22:40;;;;;;;4.82;0.80;;;19.60;68.60;;;;;;10521750;28;20093;-30
2023/04/15 23:27:44;;;;;;;2.15;0.80;;;19.40;68.00;;;;;;10517725;28;20060;-28
2023/04/15 23:32:46;;;;;;;3.83;1.10;;;18.80;72.90;;;;;;10521744;28;20044;-30
2023/04/15 23:37:48;;;;;;;3.10;0.82;;;18.80;69.10;;;;;;10529629;28;20079;-29
2023/04/15 23:42:51;;;;;;;4.57;1.23;;;19.70;68.30;;;;;;10517394;28;20048;-37
2023/04/15 23:47:53;;;;;;;3.13;0.95;;;19.50;68.70;;;;;;10523593;28;20088;-36
2023/04/15 23:52:55;;;;;;;2.92;0.80;;;19.20;69.20;;;;;;10533245;28;20142;-29
2023/04/15 23:57:58;;;;;;;4.85;1.23;;;18.30;76.10;;;;;;10517396;28;20052;-30
